Time;durP1;ratioP1;P1;durP2;ratioP2;P2;SDS_P1;SDS_P2;PMS_P1;PMS_P2;Temp;Humidity;BMP_temperature;BMP_pressure;BME280_temperature;BME280_humidity;BME280_pressure;Samples;Min_cycle;Max_cycle;Signal;HPM_P1;HPM_P2
2022/06/16 00:01:04;;;;;;;7.53;6.73;;;18.10;84.60;;;;;;5073061;28;20996;-64
2022/06/16 00:03:31;;;;;;;10.10;7.40;;;18.10;85.20;;;;;;5073658;28;20569;-65
2022/06/16 00:06:00;;;;;;;7.73;5.57;;;18.10;85.20;;;;;;5073214;28;20440;-64
2022/06/16 00:08:27;;;;;;;8.50;6.40;;;18.10;85.40;;;;;;5072883;28;20448;-65
2022/06/16 00:13:40;;;;;;;8.93;4.60;;;18.00;86.60;;;;;;5073211;28;20439;-64
2022/06/16 00:16:08;;;;;;;7.77;5.50;;;18.00;86.30;;;;;;5073126;28;20533;-64
2022/06/16 00:18:35;;;;;;;7.60;5.77;;;18.00;86.20;;;;;;5072888;28;20470;-65
2022/06/16 00:21:04;;;;;;;6.30;5.30;;;18.00;86.30;;;;;;5073300;28;20952;-64
2022/06/16 00:23:31;;;;;;;7.50;6.80;;;18.00;86.20;;;;;;5072770;28;20443;-65
2022/06/16 00:25:58;;;;;;;9.67;8.17;;;18.00;87.30;;;;;;5073236;28;20439;-65
2022/06/16 00:28:26;;;;;;;11.30;6.77;;;18.00;86.40;;;;;;5072588;28;20471;-65
2022/06/16 00:31:02;;;;;;;8.13;6.67;;;17.90;87.10;;;;;;5073109;28;20493;-65
2022/06/16 00:33:29;;;;;;;9.80;6.63;;;17.90;87.30;;;;;;5072752;28;20464;-65
2022/06/16 00:35:56;;;;;;;11.20;7.67;;;17.90;87.50;;;;;;5073089;28;20561;-64
2022/06/16 00:38:24;;;;;;;6.90;6.00;;;17.80;87.20;;;;;;5072523;28;20509;-65
2022/06/16 00:40:52;;;;;;;6.70;5.53;;;17.80;87.00;;;;;;5073082;28;20443;-66
2022/06/16 00:43:19;;;;;;;6.33;5.47;;;17.70;87.00;;;;;;5072825;28;20523;-65
2022/06/16 00:45:50;;;;;;;8.63;6.07;;;17.70;87.00;;;;;;5072251;28;20482;-64
2022/06/16 00:48:26;;;;;;;5.90;5.37;;;17.70;86.90;;;;;;5072585;28;20523;-65
2022/06/16 00:50:58;;;;;;;7.00;5.00;;;17.80;87.10;;;;;;5072927;28;20431;-65
2022/06/16 00:53:29;;;;;;;6.20;5.60;;;17.80;87.40;;;;;;5072121;28;20448;-65
2022/06/16 00:55:57;;;;;;;7.13;5.23;;;17.80;87.70;;;;;;5071637;28;20499;-65
2022/06/16 00:58:27;;;;;;;8.90;6.40;;;17.80;87.30;;;;;;5072251;28;20436;-65
2022/06/16 01:00:54;;;;;;;7.00;6.33;;;17.90;86.80;;;;;;5072694;28;20494;-64
2022/06/16 01:06:03;;;;;;;6.53;5.83;;;17.80;86.70;;;;;;5072048;28;20495;-65
2022/06/16 01:08:31;;;;;;;7.13;5.90;;;17.70;86.70;;;;;;5072390;28;20432;-65
2022/06/16 01:11:05;;;;;;;5.90;5.30;;;17.80;86.40;;;;;;5072631;28;20859;-65
2022/06/16 01:13:41;;;;;;;8.83;5.77;;;17.80;85.80;;;;;;5071753;28;20428;-65
2022/06/16 01:16:21;;;;;;;6.87;4.60;;;17.80;85.60;;;;;;5072320;28;20965;-65
2022/06/16 01:18:59;;;;;;;7.30;5.50;;;17.80;85.70;;;;;;5071963;28;20505;-64
2022/06/16 01:21:37;;;;;;;12.43;5.97;;;17.80;85.80;;;;;;5072418;28;20436;-65
2022/06/16 01:24:36;;;;;;;11.13;5.80;;;17.80;85.70;;;;;;5071975;28;20790;-65
2022/06/16 01:27:41;;;;;;;9.50;5.67;;;17.80;86.10;;;;;;5072572;28;20448;-65
2022/06/16 01:30:15;;;;;;;12.60;5.67;;;17.80;86.20;;;;;;5052379;28;20444;-64
2022/06/16 01:32:49;;;;;;;7.60;6.00;;;17.70;86.00;;;;;;5052502;28;20441;-65
2022/06/16 01:35:33;;;;;;;6.80;5.70;;;17.60;85.80;;;;;;5071026;28;20502;-64
2022/06/16 01:38:10;;;;;;;6.50;5.30;;;17.60;86.30;;;;;;5071836;28;20436;-65
2022/06/16 01:40:41;;;;;;;7.47;5.73;;;17.50;86.30;;;;;;5072172;28;20436;-64
2022/06/16 01:43:15;;;;;;;6.97;5.93;;;17.60;86.90;;;;;;5071779;28;20446;-64
2022/06/16 01:45:51;;;;;;;9.20;5.23;;;17.50;86.90;;;;;;5072126;28;20436;-64
2022/06/16 01:48:20;;;;;;;9.93;6.10;;;17.50;87.20;;;;;;5071562;28;20444;-65
2022/06/16 01:50:52;;;;;;;6.77;5.53;;;17.40;87.50;;;;;;5071978;28;20424;-65
2022/06/16 01:53:26;;;;;;;7.47;5.87;;;17.20;86.70;;;;;;5072099;28;20472;-65
2022/06/16 01:56:00;;;;;;;8.43;6.50;;;17.10;87.60;;;;;;5072628;28;20490;-66
2022/06/16 01:58:35;;;;;;;8.07;5.47;;;17.00;88.50;;;;;;5075698;28;20463;-65
2022/06/16 02:01:08;;;;;;;6.80;6.10;;;17.00;89.00;;;;;;5075603;28;20518;-65
2022/06/16 02:03:41;;;;;;;8.30;5.50;;;17.10;89.20;;;;;;5076051;28;20940;-65
2022/06/16 02:06:13;;;;;;;7.40;6.10;;;17.20;89.00;;;;;;5074871;28;20434;-64
2022/06/16 02:08:45;;;;;;;6.00;5.30;;;17.20;89.00;;;;;;5075463;28;20467;-65
2022/06/16 02:11:16;;;;;;;11.10;6.73;;;17.20;89.30;;;;;;5075572;28;20458;-65
2022/06/16 02:13:49;;;;;;;8.37;5.87;;;17.20;89.40;;;;;;5075918;28;20804;-64
2022/06/16 02:16:21;;;;;;;8.10;5.93;;;17.20;88.90;;;;;;5075356;28;20487;-64
2022/06/16 02:18:51;;;;;;;9.30;6.67;;;17.10;88.70;;;;;;5075485;28;20456;-65
2022/06/16 02:21:23;;;;;;;8.60;6.47;;;17.00;89.00;;;;;;5075191;28;20831;-65
2022/06/16 02:23:52;;;;;;;8.27;5.73;;;17.00;89.00;;;;;;5055564;28;20835;-65
2022/06/16 02:26:19;;;;;;;7.70;6.67;;;17.00;88.90;;;;;;5061480;28;20445;-65
2022/06/16 02:28:49;;;;;;;6.83;5.90;;;17.00;88.90;;;;;;5075218;28;20463;-65
2022/06/16 02:31:33;;;;;;;7.80;6.70;;;17.00;89.10;;;;;;5074941;28;20474;-64
2022/06/16 02:34:11;;;;;;;7.13;6.40;;;17.00;89.00;;;;;;5075561;28;20439;-65
2022/06/16 02:36:54;;;;;;;6.60;6.00;;;17.00;89.20;;;;;;5074779;28;20475;-65
2022/06/16 02:39:37;;;;;;;7.90;5.93;;;17.00;89.10;;;;;;5075401;28;20539;-65
2022/06/16 02:42:13;;;;;;;7.33;6.00;;;17.00;89.20;;;;;;5058163;28;20439;-65
2022/06/16 02:44:46;;;;;;;6.90;5.47;;;16.90;89.10;;;;;;5074846;28;20956;-65
2022/06/16 02:47:44;;;;;;;7.30;6.50;;;16.90;89.00;;;;;;5075141;28;20444;-64
2022/06/16 02:50:16;;;;;;;6.07;5.23;;;16.90;89.40;;;;;;5074978;28;20464;-65
2022/06/16 02:52:49;;;;;;;7.70;5.50;;;16.90;89.80;;;;;;5074939;28;20444;-65
2022/06/16 02:55:22;;;;;;;12.33;5.43;;;16.90;90.00;;;;;;5074487;28;20926;-65
2022/06/16 02:57:52;;;;;;;6.07;5.47;;;16.80;90.10;;;;;;5075052;28;20515;-65
2022/06/16 03:00:26;;;;;;;6.23;4.97;;;16.80;90.20;;;;;;5074889;28;20440;-65
2022/06/16 03:02:54;;;;;;;9.67;5.80;;;16.70;90.30;;;;;;5074508;28;20436;-68
2022/06/16 03:05:21;;;;;;;10.53;6.00;;;16.70;90.20;;;;;;5073757;28;20470;-64
2022/06/16 03:07:48;;;;;;;8.97;5.90;;;16.70;90.20;;;;;;5073990;28;20440;-65
2022/06/16 03:10:50;;;;;;;6.80;6.10;;;16.70;90.20;;;;;;5074266;28;20487;-65
2022/06/16 03:13:06;;;;;;;5.40;4.50;;;16.70;90.30;;;;;;5074016;28;20525;-65
2022/06/16 03:15:34;;;;;;;7.20;5.83;;;16.70;90.20;;;;;;5074633;28;20498;-65
2022/06/16 03:18:03;;;;;;;8.23;5.97;;;16.70;90.40;;;;;;5073924;28;20493;-65
2022/06/16 03:20:30;;;;;;;12.33;6.43;;;16.80;90.20;;;;;;5074548;28;21013;-65
2022/06/16 03:22:57;;;;;;;7.33;5.50;;;16.70;89.80;;;;;;5074281;28;20854;-65
2022/06/16 03:25:24;;;;;;;9.53;5.43;;;16.70;89.70;;;;;;5074528;28;20503;-65
2022/06/16 03:27:51;;;;;;;6.90;6.20;;;16.60;89.50;;;;;;5073847;28;20462;-66
2022/06/16 03:30:18;;;;;;;9.03;5.87;;;16.60;89.80;;;;;;5074402;28;20515;-65
2022/06/16 03:32:45;;;;;;;5.87;5.17;;;16.50;90.10;;;;;;5073828;28;20436;-68
2022/06/16 03:35:15;;;;;;;9.10;5.53;;;16.50;90.30;;;;;;5074346;28;20444;-65
2022/06/16 03:37:42;;;;;;;10.30;6.40;;;16.50;90.30;;;;;;5073328;28;20478;-66
2022/06/16 03:40:13;;;;;;;7.33;6.07;;;16.50;90.20;;;;;;5074232;28;20440;-65
2022/06/16 03:42:40;;;;;;;9.97;7.30;;;16.50;90.30;;;;;;5073777;28;20440;-64
2022/06/16 03:45:09;;;;;;;6.83;6.00;;;16.50;90.30;;;;;;5074198;28;20531;-65
2022/06/16 03:47:36;;;;;;;8.40;7.10;;;16.40;90.50;;;;;;5073426;28;20848;-65
2022/06/16 03:50:03;;;;;;;8.93;6.37;;;16.40;90.50;;;;;;5073185;28;20436;-65
2022/06/16 03:52:32;;;;;;;7.00;6.33;;;16.40;90.60;;;;;;5073594;28;20435;-65
2022/06/16 03:54:59;;;;;;;7.27;5.23;;;16.40;90.60;;;;;;5073632;28;20443;-65
2022/06/16 03:57:26;;;;;;;9.67;6.20;;;16.40;90.60;;;;;;5073470;28;20831;-65
2022/06/16 03:59:53;;;;;;;9.90;6.10;;;16.40;90.60;;;;;;5073083;28;20525;-64
2022/06/16 04:02:20;;;;;;;6.93;5.83;;;16.40;90.70;;;;;;5073681;28;20493;-65
2022/06/16 04:04:47;;;;;;;6.10;5.50;;;16.40;91.00;;;;;;5073685;28;20475;-64
2022/06/16 04:07:14;;;;;;;7.17;6.13;;;16.40;91.00;;;;;;5074026;28;20448;-65
2022/06/16 04:09:43;;;;;;;6.87;5.30;;;16.40;91.20;;;;;;5072809;28;20481;-65
2022/06/16 04:12:10;;;;;;;9.20;5.80;;;16.40;91.10;;;;;;5073426;28;20861;-66
2022/06/16 04:14:38;;;;;;;10.70;6.43;;;16.50;91.20;;;;;;5073295;28;20432;-65
2022/06/16 04:17:06;;;;;;;7.10;5.90;;;16.50;91.40;;;;;;5073912;28;20483;-65
2022/06/16 04:19:33;;;;;;;9.23;5.60;;;16.50;91.30;;;;;;5072474;28;20432;-65
2022/06/16 04:22:00;;;;;;;8.87;5.57;;;16.50;91.50;;;;;;5073342;28;20809;-65
2022/06/16 04:24:28;;;;;;;10.30;6.47;;;16.50;91.60;;;;;;5072865;28;20446;-65
2022/06/16 04:26:57;;;;;;;6.63;5.30;;;16.50;91.70;;;;;;5073698;28;20883;-65
2022/06/16 04:29:25;;;;;;;9.07;5.70;;;16.50;91.90;;;;;;5072864;28;20542;-65
2022/06/16 04:31:52;;;;;;;9.60;6.20;;;16.50;91.90;;;;;;5073087;28;20436;-65
2022/06/16 04:34:19;;;;;;;6.40;5.70;;;16.60;91.90;;;;;;5073717;28;20531;-65
2022/06/16 04:36:46;;;;;;;9.13;6.10;;;16.60;92.00;;;;;;5072844;28;20479;-65
2022/06/16 04:39:13;;;;;;;8.60;5.57;;;16.70;92.20;;;;;;5073256;28;20493;-64
2022/06/16 04:41:40;;;;;;;7.80;5.40;;;16.70;92.20;;;;;;5072597;28;20511;-65
2022/06/16 04:44:09;;;;;;;8.63;5.27;;;16.80;92.30;;;;;;5073218;28;20531;-65
2022/06/16 04:46:36;;;;;;;11.50;6.20;;;16.90;92.50;;;;;;5072883;28;20447;-65
2022/06/16 04:49:04;;;;;;;7.87;5.90;;;16.90;92.50;;;;;;5073160;28;20446;-65
2022/06/16 04:51:31;;;;;;;7.93;6.30;;;16.90;92.50;;;;;;5072861;28;20440;-65
2022/06/16 04:53:58;;;;;;;6.73;6.03;;;17.00;92.50;;;;;;5072830;28;20494;-65
2022/06/16 04:56:25;;;;;;;8.37;6.00;;;17.10;92.60;;;;;;5073043;28;20439;-66
2022/06/16 04:58:52;;;;;;;7.37;6.23;;;17.20;92.50;;;;;;5072642;28;20476;-66
2022/06/16 05:01:20;;;;;;;18.63;6.67;;;17.20;92.80;;;;;;5072511;28;20440;-66
2022/06/16 05:03:48;;;;;;;8.07;6.37;;;17.40;93.00;;;;;;5072288;28;20519;-65
2022/06/16 05:06:15;;;;;;;8.20;6.30;;;17.50;93.00;;;;;;5072625;28;20838;-65
2022/06/16 05:08:42;;;;;;;6.80;6.20;;;17.60;93.10;;;;;;5072614;28;20432;-65
2022/06/16 05:11:09;;;;;;;7.77;6.93;;;17.70;92.90;;;;;;5072694;28;20448;-65
2022/06/16 05:13:36;;;;;;;8.33;6.67;;;17.70;92.50;;;;;;5072297;28;20987;-65
2022/06/16 05:16:03;;;;;;;6.23;5.20;;;17.90;92.50;;;;;;5072425;28;20440;-65
2022/06/16 05:18:32;;;;;;;11.13;5.73;;;18.00;92.30;;;;;;5072177;28;20476;-66
2022/06/16 05:21:05;;;;;;;7.20;6.43;;;18.20;92.10;;;;;;5071824;28;20472;-65
2022/06/16 05:23:33;;;;;;;7.90;6.40;;;18.40;92.20;;;;;;5072444;28;20432;-65
2022/06/16 05:26:00;;;;;;;9.30;6.47;;;18.60;92.00;;;;;;5072139;28;20490;-65
2022/06/16 05:28:27;;;;;;;10.30;6.67;;;18.80;91.80;;;;;;5072414;28;20563;-65
2022/06/16 05:30:54;;;;;;;7.00;5.57;;;19.00;91.60;;;;;;5071606;28;20436;-66
2022/06/16 05:33:21;;;;;;;7.60;6.13;;;19.20;91.30;;;;;;5072714;28;20444;-65
2022/06/16 05:35:58;;;;;;;6.90;5.33;;;19.30;90.40;;;;;;5072283;28;20440;-65
2022/06/16 05:38:26;;;;;;;9.70;5.67;;;19.40;90.20;;;;;;5072203;28;20479;-65
2022/06/16 05:40:57;;;;;;;8.13;5.40;;;19.40;89.70;;;;;;5072116;28;20436;-66
2022/06/16 05:43:25;;;;;;;7.33;5.50;;;19.40;89.40;;;;;;5072519;28;20942;-65
2022/06/16 05:45:52;;;;;;;6.90;6.20;;;19.50;89.80;;;;;;5072305;28;20436;-65
2022/06/16 05:48:20;;;;;;;9.57;5.50;;;19.60;90.00;;;;;;5072783;28;20443;-65
2022/06/16 05:50:48;;;;;;;7.93;5.67;;;19.70;89.60;;;;;;5071943;28;20799;-65
2022/06/16 05:53:16;;;;;;;7.73;5.50;;;19.80;89.60;;;;;;5071962;28;20436;-65
2022/06/16 05:55:43;;;;;;;7.83;5.57;;;19.90;89.40;;;;;;5072195;28;20428;-65
2022/06/16 05:58:10;;;;;;;7.03;6.33;;;20.00;89.90;;;;;;5072373;28;20575;-65
2022/06/16 06:00:38;;;;;;;11.20;5.80;;;20.20;89.70;;;;;;5072044;28;20440;-66
2022/06/16 06:03:06;;;;;;;8.27;7.00;;;20.20;89.20;;;;;;5072145;28;20930;-65
2022/06/16 06:05:33;;;;;;;6.90;5.70;;;20.30;88.10;;;;;;5071845;28;20436;-65
2022/06/16 06:16:29;;;;;;;10.70;6.73;;;20.80;87.40;;;;;;5071605;28;20950;-66
2022/06/16 06:18:57;;;;;;;8.47;5.70;;;21.00;87.30;;;;;;5072422;28;20439;-65
2022/06/16 06:24:07;;;;;;;6.30;5.07;;;21.00;85.00;;;;;;5058368;28;20520;-66
2022/06/16 06:26:36;;;;;;;9.60;5.50;;;21.10;84.60;;;;;;5052091;28;20850;-65
2022/06/16 06:29:04;;;;;;;8.07;5.77;;;21.10;85.20;;;;;;5051223;28;20461;-66
2022/06/16 06:31:31;;;;;;;11.83;6.13;;;21.30;85.30;;;;;;5069325;28;20471;-65
2022/06/16 06:33:58;;;;;;;14.67;8.23;;;21.40;86.00;;;;;;5070272;28;20844;-65
2022/06/16 06:36:25;;;;;;;16.73;8.07;;;21.50;86.00;;;;;;5070149;28;20471;-66
2022/06/16 06:38:52;;;;;;;16.33;9.30;;;21.50;84.80;;;;;;5069783;28;20485;-66
2022/06/16 06:41:19;;;;;;;15.97;10.30;;;21.60;85.10;;;;;;5069686;28;20440;-66
2022/06/16 06:43:48;;;;;;;26.73;11.27;;;21.60;85.50;;;;;;5072227;28;20440;-65
2022/06/16 06:46:15;;;;;;;14.67;9.97;;;21.50;86.70;;;;;;5073692;28;20478;-65
2022/06/16 06:48:42;;;;;;;16.30;10.27;;;21.50;87.00;;;;;;5077285;28;20474;-66
2022/06/16 06:51:10;;;;;;;13.93;9.43;;;21.60;87.40;;;;;;5076551;28;20432;-65
2022/06/16 06:53:37;;;;;;;12.87;9.67;;;21.60;87.40;;;;;;5075043;28;20535;-66
2022/06/16 06:56:05;;;;;;;11.60;7.93;;;21.80;87.50;;;;;;5079447;28;20512;-66
2022/06/16 06:58:33;;;;;;;10.70;7.50;;;21.90;88.70;;;;;;5076712;28;20483;-66
2022/06/16 07:01:02;;;;;;;14.30;7.00;;;22.20;90.20;;;;;;5076301;28;20440;-66
2022/06/16 07:03:30;;;;;;;14.33;7.53;;;22.50;90.50;;;;;;5077781;28;20445;-66
2022/06/16 07:05:59;;;;;;;7.73;5.43;;;22.70;90.40;;;;;;5077395;28;20471;-66
2022/06/16 07:08:26;;;;;;;8.33;5.70;;;23.00;90.30;;;;;;5075363;28;20441;-67
2022/06/16 07:10:53;;;;;;;17.73;6.57;;;23.10;89.00;;;;;;5079032;28;20493;-66
2022/06/16 07:13:21;;;;;;;10.00;4.77;;;23.30;88.40;;;;;;5077424;28;20433;-65
2022/06/16 07:15:48;;;;;;;8.20;5.10;;;23.50;84.60;;;;;;5076764;28;20805;-66
2022/06/16 07:18:17;;;;;;;7.40;4.43;;;23.60;83.60;;;;;;5078458;28;20478;-65
2022/06/16 07:20:47;;;;;;;6.13;4.20;;;23.60;83.60;;;;;;5077956;28;20451;-66
2022/06/16 07:23:15;;;;;;;6.23;3.67;;;23.70;81.10;;;;;;5076924;28;20450;-66
2022/06/16 07:25:42;;;;;;;6.70;4.60;;;23.80;80.20;;;;;;5073959;28;20438;-66
2022/06/16 07:28:09;;;;;;;7.60;4.33;;;24.00;77.60;;;;;;5076571;28;20471;-66
2022/06/16 07:30:37;;;;;;;12.73;4.27;;;24.20;77.70;;;;;;5078939;28;20435;-66
2022/06/16 07:33:04;;;;;;;8.27;4.80;;;24.40;74.30;;;;;;5077934;28;20847;-66
2022/06/16 07:35:32;;;;;;;6.80;4.20;;;24.50;74.90;;;;;;5075175;28;20443;-66
2022/06/16 07:37:59;;;;;;;5.07;3.73;;;24.60;74.60;;;;;;5076163;28;20488;-68
2022/06/16 07:40:26;;;;;;;6.20;3.80;;;24.80;73.30;;;;;;5076023;28;20451;-66
2022/06/16 07:42:56;;;;;;;8.60;4.10;;;25.00;72.70;;;;;;5077604;28;20470;-68
2022/06/16 07:45:24;;;;;;;7.47;3.53;;;25.10;70.70;;;;;;5075836;28;20948;-66
2022/06/16 07:47:51;;;;;;;6.30;3.60;;;25.20;68.80;;;;;;5074462;28;20446;-66
2022/06/16 07:50:19;;;;;;;8.70;3.77;;;25.40;67.40;;;;;;5077041;28;20530;-66
2022/06/16 07:52:47;;;;;;;6.77;3.97;;;25.70;63.90;;;;;;5075991;28;20486;-66
2022/06/16 07:55:15;;;;;;;8.63;4.37;;;25.80;64.10;;;;;;5074978;28;20523;-67
2022/06/16 07:57:44;;;;;;;8.43;4.33;;;25.90;64.90;;;;;;5076637;28;20483;-67
2022/06/16 08:00:13;;;;;;;6.47;3.63;;;25.80;64.90;;;;;;5071656;28;20446;-69
2022/06/16 08:02:40;;;;;;;9.20;3.90;;;25.70;65.90;;;;;;5068576;28;20443;-65
2022/06/16 08:05:10;;;;;;;9.90;4.20;;;25.60;66.30;;;;;;5073152;28;20467;-66
2022/06/16 08:07:37;;;;;;;7.97;4.33;;;25.40;66.50;;;;;;5059649;28;20451;-69
2022/06/16 08:10:08;;;;;;;12.30;2.90;;;25.30;67.00;;;;;;5075271;28;20451;-66
2022/06/16 08:12:37;;;;;;;7.43;2.53;;;25.00;63.50;;;;;;5055528;28;20945;-67
2022/06/16 08:15:04;;;;;;;4.77;2.10;;;24.60;59.70;;;;;;5067765;28;20438;-67
2022/06/16 08:17:35;;;;;;;5.03;1.87;;;23.90;58.10;;;;;;5070875;28;20569;-66
2022/06/16 08:20:03;;;;;;;5.27;2.37;;;23.60;59.80;;;;;;5071119;28;20447;-66
2022/06/16 08:22:30;;;;;;;3.93;1.87;;;23.30;59.40;;;;;;5077247;28;20450;-65
2022/06/16 08:24:57;;;;;;;8.83;2.80;;;23.20;61.60;;;;;;5074089;28;20450;-65
2022/06/16 08:27:32;;;;;;;5.20;2.07;;;23.10;64.70;;;;;;5074972;28;20465;-66
2022/06/16 08:29:59;;;;;;;6.67;2.77;;;23.10;68.20;;;;;;5078058;28;20542;-67
2022/06/16 08:32:26;;;;;;;7.30;3.20;;;23.00;71.00;;;;;;5077148;28;20535;-66
2022/06/16 08:34:53;;;;;;;5.27;2.47;;;23.10;72.40;;;;;;5075293;28;20530;-65
2022/06/16 08:37:21;;;;;;;5.10;2.60;;;23.20;70.70;;;;;;5072976;28;20474;-65
2022/06/16 08:39:48;;;;;;;6.87;2.37;;;23.40;72.50;;;;;;5077748;28;20568;-65
2022/06/16 08:42:23;;;;;;;4.40;2.20;;;23.60;74.60;;;;;;5073957;28;20497;-66
2022/06/16 08:45:23;;;;;;;5.60;2.80;;;24.00;72.00;;;;;;5077197;28;21513;-65
2022/06/16 08:47:59;;;;;;;11.33;3.33;;;24.20;67.70;;;;;;5075872;28;20442;-68
2022/06/16 08:50:33;;;;;;;5.47;4.07;;;24.20;67.70;;;;;;5074186;28;20445;-66
2022/06/16 08:53:17;;;;;;;5.60;3.73;;;23.90;68.70;;;;;;5074883;28;20474;-65
2022/06/16 08:55:54;;;;;;;5.00;3.40;;;24.00;72.20;;;;;;5074834;28;20909;-65
2022/06/16 08:58:33;;;;;;;4.57;2.87;;;24.50;74.10;;;;;;5074597;28;20514;-66
2022/06/16 09:01:07;;;;;;;5.60;3.30;;;24.90;71.30;;;;;;5079121;28;20424;-65
2022/06/16 09:03:42;;;;;;;9.10;3.40;;;25.10;73.60;;;;;;5073394;28;20502;-66
2022/06/16 09:06:31;;;;;;;7.60;3.60;;;25.30;71.10;;;;;;5076805;28;20450;-66
2022/06/16 09:09:09;;;;;;;10.23;3.23;;;25.40;69.80;;;;;;5073702;28;20447;-66
2022/06/16 09:11:42;;;;;;;7.47;3.80;;;25.40;70.30;;;;;;5072389;28;20464;-67
2022/06/16 09:17:22;;;;;;;4.30;3.80;;;25.70;71.80;;;;;;5076349;28;20489;-65
2022/06/16 09:20:04;;;;;;;5.83;3.60;;;25.90;70.50;;;;;;5071647;28;20506;-66
2022/06/16 09:22:47;;;;;;;7.90;3.83;;;26.20;69.90;;;;;;5071659;28;20847;-67
2022/06/16 09:25:29;;;;;;;4.10;3.00;;;26.40;68.80;;;;;;5068968;28;20459;-66
2022/06/16 09:28:02;;;;;;;8.93;3.57;;;26.50;68.80;;;;;;5067424;28;20473;-66
2022/06/16 09:30:34;;;;;;;6.30;4.03;;;26.60;68.90;;;;;;5068150;28;20467;-66
2022/06/16 09:33:07;;;;;;;7.40;3.63;;;26.70;68.60;;;;;;5069783;28;20437;-67
2022/06/16 09:35:38;;;;;;;10.17;3.60;;;26.80;67.70;;;;;;5071239;28;20450;-66
2022/06/16 09:38:11;;;;;;;5.47;3.90;;;26.80;67.20;;;;;;5074058;28;21056;-66
2022/06/16 09:40:44;;;;;;;7.63;3.20;;;26.90;69.10;;;;;;5075263;28;20496;-66
2022/06/16 09:43:14;;;;;;;6.70;3.70;;;27.20;67.20;;;;;;5076675;28;20954;-65
2022/06/16 09:45:47;;;;;;;5.53;3.50;;;27.30;66.00;;;;;;5069497;28;20451;-68
2022/06/16 09:48:21;;;;;;;7.67;3.03;;;27.60;65.90;;;;;;5053325;28;20451;-66
2022/06/16 09:50:52;;;;;;;3.97;3.20;;;27.70;60.00;;;;;;5064646;28;20494;-66
2022/06/16 09:53:29;;;;;;;8.87;4.10;;;27.40;59.70;;;;;;5067181;28;20498;-66
2022/06/16 09:56:02;;;;;;;5.20;3.07;;;27.30;61.10;;;;;;5070462;28;20455;-67
2022/06/16 09:58:34;;;;;;;6.57;2.77;;;27.10;61.60;;;;;;5073092;28;20989;-67
2022/06/16 10:01:09;;;;;;;6.87;2.70;;;27.20;62.00;;;;;;5066888;28;20435;-66
2022/06/16 10:03:43;;;;;;;4.80;3.10;;;27.30;61.10;;;;;;5075896;28;20437;-66
2022/06/16 10:06:28;;;;;;;5.77;2.80;;;27.50;62.00;;;;;;5073119;28;20480;-66
2022/06/16 10:09:05;;;;;;;5.37;3.23;;;27.70;61.70;;;;;;5068772;28;20432;-66
2022/06/16 10:11:43;;;;;;;5.67;3.43;;;28.00;60.50;;;;;;5072551;28;20436;-66
2022/06/16 10:14:18;;;;;;;5.70;3.20;;;28.20;60.00;;;;;;5071862;28;20440;-66
2022/06/16 10:16:53;;;;;;;6.90;3.50;;;28.10;57.90;;;;;;5073282;28;20493;-66
2022/06/16 10:19:23;;;;;;;9.20;3.87;;;27.90;58.10;;;;;;5077020;28;20557;-66
2022/06/16 10:21:51;;;;;;;14.90;5.53;;;27.60;56.40;;;;;;5078365;28;20439;-65
2022/06/16 10:24:20;;;;;;;6.30;4.03;;;27.60;57.40;;;;;;5074391;28;20513;-66
2022/06/16 10:26:47;;;;;;;7.23;4.40;;;27.70;56.90;;;;;;5072142;28;20436;-66
2022/06/16 10:29:23;;;;;;;11.30;4.37;;;27.70;57.30;;;;;;5073860;28;20531;-66
2022/06/16 10:31:51;;;;;;;7.07;3.63;;;27.80;57.10;;;;;;5075694;28;20465;-65
2022/06/16 10:34:28;;;;;;;8.00;3.60;;;27.90;56.90;;;;;;5077429;28;20471;-67
2022/06/16 10:37:00;;;;;;;10.40;4.40;;;28.00;56.60;;;;;;5073803;28;20493;-66
2022/06/16 10:39:38;;;;;;;6.70;3.53;;;28.00;57.40;;;;;;5077736;28;20491;-67
2022/06/16 10:42:15;;;;;;;10.53;5.97;;;28.10;57.40;;;;;;5074970;28;20872;-65
2022/06/16 10:44:50;;;;;;;8.67;6.93;;;28.40;58.80;;;;;;5076981;28;20991;-66
2022/06/16 10:47:22;;;;;;;9.30;4.10;;;28.60;57.50;;;;;;5070110;28;20440;-66
2022/06/16 10:49:51;;;;;;;5.30;3.80;;;28.60;55.50;;;;;;5077560;28;20483;-67
2022/06/16 10:52:30;;;;;;;7.27;3.90;;;28.30;56.10;;;;;;5077338;28;20986;-66
2022/06/16 10:55:01;;;;;;;9.80;4.40;;;27.90;57.20;;;;;;5076250;28;20466;-66
2022/06/16 10:57:32;;;;;;;6.80;3.67;;;27.80;58.60;;;;;;5072800;28;20436;-65
2022/06/16 11:00:08;;;;;;;6.90;4.03;;;27.80;58.20;;;;;;5076943;28;21092;-65
2022/06/16 11:02:36;;;;;;;7.83;3.47;;;28.00;59.80;;;;;;5077157;28;20440;-65
2022/06/16 11:05:11;;;;;;;7.07;4.23;;;28.40;57.20;;;;;;5078312;28;20440;-66
2022/06/16 11:07:40;;;;;;;6.57;3.50;;;28.60;56.80;;;;;;5076896;28;20482;-66
2022/06/16 11:10:11;;;;;;;6.80;4.47;;;28.80;55.00;;;;;;5076566;28;20440;-66
2022/06/16 11:12:42;;;;;;;10.20;3.80;;;28.90;53.30;;;;;;5078548;28;20463;-67
2022/06/16 11:15:18;;;;;;;5.53;3.50;;;29.00;53.10;;;;;;5078970;28;20436;-67
2022/06/16 11:17:51;;;;;;;7.00;3.33;;;29.00;50.60;;;;;;5078156;28;20907;-66
2022/06/16 11:20:31;;;;;;;8.07;3.80;;;29.00;49.60;;;;;;5074552;28;20491;-66
2022/06/16 11:22:59;;;;;;;6.50;3.53;;;28.80;47.10;;;;;;5077108;28;20451;-66
2022/06/16 11:25:31;;;;;;;14.33;5.40;;;28.50;48.50;;;;;;5079862;28;20953;-69
2022/06/16 11:28:00;;;;;;;4.70;2.90;;;28.60;51.60;;;;;;5076725;28;20988;-66
2022/06/16 11:30:30;;;;;;;7.43;3.30;;;28.80;50.30;;;;;;5076246;28;20461;-66
2022/06/16 11:32:57;;;;;;;6.10;3.60;;;29.00;50.20;;;;;;5078324;28;20531;-66
2022/06/16 11:35:33;;;;;;;5.00;2.87;;;29.10;49.60;;;;;;5079579;28;20443;-66
2022/06/16 11:38:06;;;;;;;4.20;3.30;;;29.30;50.60;;;;;;5075500;28;21380;-66
2022/06/16 11:40:41;;;;;;;6.40;3.87;;;29.50;50.60;;;;;;5079666;28;20480;-66
2022/06/16 11:43:23;;;;;;;6.23;4.80;;;29.70;49.90;;;;;;5074238;28;20448;-65
2022/06/16 11:45:54;;;;;;;7.30;3.73;;;29.90;51.10;;;;;;5080236;28;20443;-69
2022/06/16 11:48:31;;;;;;;5.80;3.60;;;30.00;48.80;;;;;;5074866;28;20471;-68
2022/06/16 11:51:11;;;;;;;6.00;3.90;;;30.00;48.00;;;;;;5075644;28;20914;-66
2022/06/16 11:53:50;;;;;;;7.17;4.20;;;30.00;47.90;;;;;;5074038;28;20497;-66
2022/06/16 11:56:38;;;;;;;9.03;7.70;;;29.90;48.70;;;;;;5079506;28;20464;-66
2022/06/16 11:59:23;;;;;;;11.53;7.73;;;29.80;48.80;;;;;;5072020;28;20483;-66
2022/06/16 12:01:55;;;;;;;12.93;5.80;;;29.50;50.50;;;;;;5074991;28;20473;-69
2022/06/16 12:04:50;;;;;;;9.43;4.80;;;29.30;52.10;;;;;;5073447;28;20851;-66
2022/06/16 12:07:49;;;;;;;9.57;6.00;;;28.90;55.40;;;;;;5077489;28;20444;-67
2022/06/16 12:10:32;;;;;;;8.80;4.67;;;28.50;55.90;;;;;;5078882;28;20440;-65
2022/06/16 12:13:07;;;;;;;21.73;6.80;;;28.10;57.40;;;;;;5073652;28;20498;-65
2022/06/16 12:15:42;;;;;;;7.50;4.93;;;27.80;60.00;;;;;;5077942;28;20443;-66
2022/06/16 12:18:31;;;;;;;6.50;5.10;;;27.50;61.00;;;;;;5075404;28;20440;-65
2022/06/16 12:21:07;;;;;;;7.53;4.97;;;27.20;62.80;;;;;;5070473;28;20599;-65
2022/06/16 12:23:44;;;;;;;12.00;7.33;;;26.90;63.80;;;;;;5075492;28;20527;-65
2022/06/16 12:26:21;;;;;;;18.73;16.67;;;26.70;63.60;;;;;;5072898;28;20809;-66
2022/06/16 12:28:56;;;;;;;18.13;12.53;;;26.70;64.50;;;;;;5072546;28;20870;-65
2022/06/16 12:31:33;;;;;;;9.30;6.27;;;26.70;65.80;;;;;;5074061;28;20442;-69
2022/06/16 12:34:11;;;;;;;13.40;5.33;;;26.70;65.30;;;;;;5075446;28;20922;-66
2022/06/16 12:36:43;;;;;;;6.20;5.20;;;26.80;65.60;;;;;;5072474;28;20438;-65
2022/06/16 12:39:25;;;;;;;7.43;5.47;;;27.00;66.60;;;;;;5073781;28;20479;-65
2022/06/16 12:41:55;;;;;;;12.03;6.10;;;27.30;67.50;;;;;;5070401;28;20813;-67
2022/06/16 12:44:28;;;;;;;12.10;5.43;;;27.40;67.20;;;;;;5074325;28;20444;-65
2022/06/16 12:47:00;;;;;;;7.50;5.30;;;27.60;71.60;;;;;;5070111;28;20439;-66
2022/06/16 12:49:35;;;;;;;8.30;5.20;;;27.70;72.60;;;;;;5074742;28;20830;-66
2022/06/16 12:52:08;;;;;;;8.97;5.00;;;27.80;73.40;;;;;;5076462;28;20530;-65
2022/06/16 12:54:41;;;;;;;15.20;12.50;;;27.90;71.50;;;;;;5071880;28;20935;-65
2022/06/16 12:57:13;;;;;;;12.90;7.40;;;28.00;72.20;;;;;;5076000;28;20801;-66
2022/06/16 12:59:46;;;;;;;8.17;5.77;;;28.10;73.30;;;;;;5071412;28;21734;-65
2022/06/16 13:02:19;;;;;;;7.63;5.27;;;28.20;75.20;;;;;;5071316;28;20433;-65
2022/06/16 13:04:49;;;;;;;9.73;6.03;;;28.30;74.30;;;;;;5073843;28;20549;-66
2022/06/16 13:07:20;;;;;;;7.70;5.73;;;28.40;73.20;;;;;;5066810;28;20447;-66
2022/06/16 13:09:49;;;;;;;9.00;5.80;;;28.40;73.10;;;;;;5068755;28;20494;-66
2022/06/16 13:12:21;;;;;;;8.60;5.63;;;28.50;69.90;;;;;;5071992;28;20423;-65
2022/06/16 13:14:58;;;;;;;6.07;4.57;;;28.50;70.40;;;;;;5075927;28;20509;-65
2022/06/16 13:17:28;;;;;;;8.50;5.10;;;28.40;68.10;;;;;;5064718;28;20977;-66
2022/06/16 13:20:01;;;;;;;6.87;4.60;;;28.40;64.90;;;;;;5065775;28;20570;-66
2022/06/16 13:22:34;;;;;;;8.17;4.83;;;28.50;66.80;;;;;;5069546;28;20475;-67
2022/06/16 13:25:08;;;;;;;6.30;4.00;;;28.70;65.60;;;;;;5071088;28;20569;-66
2022/06/16 13:27:46;;;;;;;6.50;4.80;;;28.70;66.10;;;;;;5074970;28;20476;-66